You are not logged in, Click here to log in
那覇空港OKA / ROAH 日本沖繩縣那霸市
ICAO: ROAH Country: 日本沖繩縣那霸市
Latitude: 26.2064 Longitude: 127.647
Total Arrivals: 297 Total Departures: 272
Latest Arrival: CI0132 (RCKH-ROAH)ALAN. LIU Latest Departure: IT231 (ROAH-RCTP)CHU. CHUHAO
Scenery:
METAR : ROAH 071230Z 14008KT 9999 FEW019 30/26 Q1010

那覇空港OKA